sensor_id;sensor_type;location;lat;lon;timestamp;P1;durP1;ratioP1;P2;durP2;ratioP2
75890;SDS011;64571;47.512;19.054;2023-02-11T00:02:35;54.60;;;21.70;;
75890;SDS011;64571;47.512;19.054;2023-02-11T00:05:38;53.30;;;22.95;;
75890;SDS011;64571;47.512;19.054;2023-02-11T00:08:40;44.30;;;21.20;;
75890;SDS011;64571;47.512;19.054;2023-02-11T00:11:43;48.87;;;22.02;;
75890;SDS011;64571;47.512;19.054;2023-02-11T00:14:45;47.42;;;21.55;;
75890;SDS011;64571;47.512;19.054;2023-02-11T00:17:48;47.47;;;20.93;;
75890;SDS011;64571;47.512;19.054;2023-02-11T00:20:50;43.38;;;20.55;;
75890;SDS011;64571;47.512;19.054;2023-02-11T00:23:53;52.67;;;22.15;;
75890;SDS011;64571;47.512;19.054;2023-02-11T00:26:58;51.67;;;20.77;;
75890;SDS011;64571;47.512;19.054;2023-02-11T00:30:01;38.13;;;15.70;;
75890;SDS011;64571;47.512;19.054;2023-02-11T00:33:06;52.83;;;20.90;;
75890;SDS011;64571;47.512;19.054;2023-02-11T00:36:12;55.03;;;22.05;;
75890;SDS011;64571;47.512;19.054;2023-02-11T00:39:19;41.25;;;17.37;;
75890;SDS011;64571;47.512;19.054;2023-02-11T00:42:21;41.78;;;18.35;;
75890;SDS011;64571;47.512;19.054;2023-02-11T00:45:24;50.20;;;20.33;;
75890;SDS011;64571;47.512;19.054;2023-02-11T00:48:27;47.83;;;19.30;;
75890;SDS011;64571;47.512;19.054;2023-02-11T00:51:29;47.20;;;18.65;;
75890;SDS011;64571;47.512;19.054;2023-02-11T00:54:32;43.28;;;20.27;;
75890;SDS011;64571;47.512;19.054;2023-02-11T00:57:34;49.05;;;19.70;;
75890;SDS011;64571;47.512;19.054;2023-02-11T01:00:37;44.10;;;18.12;;
75890;SDS011;64571;47.512;19.054;2023-02-11T01:03:40;43.57;;;18.13;;
75890;SDS011;64571;47.512;19.054;2023-02-11T01:06:43;44.70;;;17.70;;
75890;SDS011;64571;47.512;19.054;2023-02-11T01:09:45;38.78;;;16.77;;
75890;SDS011;64571;47.512;19.054;2023-02-11T01:12:48;36.28;;;16.45;;
75890;SDS011;64571;47.512;19.054;2023-02-11T01:15:51;42.45;;;17.27;;
75890;SDS011;64571;47.512;19.054;2023-02-11T01:18:55;39.57;;;16.00;;
75890;SDS011;64571;47.512;19.054;2023-02-11T01:21:57;38.53;;;14.87;;
75890;SDS011;64571;47.512;19.054;2023-02-11T01:25:00;50.60;;;19.17;;
75890;SDS011;64571;47.512;19.054;2023-02-11T01:28:02;45.30;;;18.75;;
75890;SDS011;64571;47.512;19.054;2023-02-11T01:31:05;42.28;;;16.85;;
75890;SDS011;64571;47.512;19.054;2023-02-11T01:34:08;43.43;;;17.03;;
75890;SDS011;64571;47.512;19.054;2023-02-11T01:37:11;42.22;;;17.70;;
75890;SDS011;64571;47.512;19.054;2023-02-11T01:40:14;47.20;;;20.60;;
75890;SDS011;64571;47.512;19.054;2023-02-11T01:43:18;54.00;;;22.27;;
75890;SDS011;64571;47.512;19.054;2023-02-11T01:49:34;35.50;;;15.23;;
75890;SDS011;64571;47.512;19.054;2023-02-11T01:52:39;45.67;;;19.27;;
75890;SDS011;64571;47.512;19.054;2023-02-11T01:55:43;54.40;;;25.90;;
75890;SDS011;64571;47.512;19.054;2023-02-11T01:59:06;54.40;;;22.62;;
75890;SDS011;64571;47.512;19.054;2023-02-11T02:02:19;53.40;;;22.55;;
75890;SDS011;64571;47.512;19.054;2023-02-11T02:05:28;49.70;;;22.93;;
75890;SDS011;64571;47.512;19.054;2023-02-11T02:11:48;52.17;;;21.92;;
75890;SDS011;64571;47.512;19.054;2023-02-11T02:14:51;49.38;;;23.70;;
75890;SDS011;64571;47.512;19.054;2023-02-11T02:41:31;55.30;;;23.65;;
75890;SDS011;64571;47.512;19.054;2023-02-11T02:44:36;52.62;;;24.27;;
75890;SDS011;64571;47.512;19.054;2023-02-11T02:47:39;50.55;;;22.42;;
75890;SDS011;64571;47.512;19.054;2023-02-11T02:50:41;53.22;;;22.65;;
75890;SDS011;64571;47.512;19.054;2023-02-11T03:01:12;60.63;;;26.30;;
75890;SDS011;64571;47.512;19.054;2023-02-11T03:07:34;51.88;;;23.62;;
75890;SDS011;64571;47.512;19.054;2023-02-11T03:10:45;59.63;;;24.77;;
75890;SDS011;64571;47.512;19.054;2023-02-11T03:13:50;58.83;;;24.77;;
75890;SDS011;64571;47.512;19.054;2023-02-11T03:16:56;61.03;;;26.95;;
75890;SDS011;64571;47.512;19.054;2023-02-11T03:20:02;66.80;;;25.65;;
75890;SDS011;64571;47.512;19.054;2023-02-11T03:23:10;58.95;;;23.92;;
75890;SDS011;64571;47.512;19.054;2023-02-11T03:26:51;55.23;;;24.30;;
75890;SDS011;64571;47.512;19.054;2023-02-11T03:29:52;55.45;;;23.25;;
75890;SDS011;64571;47.512;19.054;2023-02-11T03:33:13;59.85;;;24.27;;
75890;SDS011;64571;47.512;19.054;2023-02-11T03:36:32;56.70;;;23.98;;
75890;SDS011;64571;47.512;19.054;2023-02-11T03:39:59;55.45;;;23.77;;
75890;SDS011;64571;47.512;19.054;2023-02-11T03:43:14;57.70;;;24.83;;
75890;SDS011;64571;47.512;19.054;2023-02-11T03:46:21;54.88;;;24.15;;
75890;SDS011;64571;47.512;19.054;2023-02-11T03:49:28;56.80;;;22.02;;
75890;SDS011;64571;47.512;19.054;2023-02-11T03:52:34;54.63;;;23.62;;
75890;SDS011;64571;47.512;19.054;2023-02-11T03:55:39;54.35;;;25.15;;
75890;SDS011;64571;47.512;19.054;2023-02-11T03:58:43;63.30;;;25.00;;
75890;SDS011;64571;47.512;19.054;2023-02-11T04:01:47;62.22;;;26.67;;
75890;SDS011;64571;47.512;19.054;2023-02-11T04:04:50;54.00;;;24.25;;
75890;SDS011;64571;47.512;19.054;2023-02-11T04:07:52;56.30;;;25.42;;
75890;SDS011;64571;47.512;19.054;2023-02-11T04:10:55;61.30;;;25.08;;
75890;SDS011;64571;47.512;19.054;2023-02-11T04:13:57;58.70;;;26.20;;
75890;SDS011;64571;47.512;19.054;2023-02-11T04:17:01;58.53;;;25.73;;
75890;SDS011;64571;47.512;19.054;2023-02-11T04:20:04;52.42;;;24.80;;
75890;SDS011;64571;47.512;19.054;2023-02-11T04:23:07;65.95;;;24.70;;
75890;SDS011;64571;47.512;19.054;2023-02-11T04:26:09;56.58;;;25.12;;
75890;SDS011;64571;47.512;19.054;2023-02-11T04:29:12;50.30;;;22.33;;
75890;SDS011;64571;47.512;19.054;2023-02-11T04:32:14;50.03;;;23.67;;
75890;SDS011;64571;47.512;19.054;2023-02-11T04:35:17;56.08;;;23.58;;
75890;SDS011;64571;47.512;19.054;2023-02-11T04:38:19;54.63;;;23.58;;
75890;SDS011;64571;47.512;19.054;2023-02-11T04:41:25;51.78;;;21.92;;
75890;SDS011;64571;47.512;19.054;2023-02-11T04:44:27;54.83;;;22.93;;
75890;SDS011;64571;47.512;19.054;2023-02-11T04:47:30;52.88;;;23.00;;
75890;SDS011;64571;47.512;19.054;2023-02-11T04:50:32;23.77;;;10.43;;
75890;SDS011;64571;47.512;19.054;2023-02-11T04:53:35;50.38;;;20.12;;
75890;SDS011;64571;47.512;19.054;2023-02-11T04:56:37;43.85;;;19.48;;
75890;SDS011;64571;47.512;19.054;2023-02-11T04:59:40;49.47;;;21.17;;
75890;SDS011;64571;47.512;19.054;2023-02-11T05:02:43;51.50;;;19.05;;
75890;SDS011;64571;47.512;19.054;2023-02-11T05:05:45;45.03;;;20.27;;
75890;SDS011;64571;47.512;19.054;2023-02-11T05:08:48;51.75;;;21.30;;
75890;SDS011;64571;47.512;19.054;2023-02-11T05:11:51;56.35;;;24.73;;
75890;SDS011;64571;47.512;19.054;2023-02-11T05:14:54;64.17;;;25.70;;
75890;SDS011;64571;47.512;19.054;2023-02-11T05:17:57;62.30;;;25.15;;
75890;SDS011;64571;47.512;19.054;2023-02-11T05:21:04;59.88;;;27.20;;
75890;SDS011;64571;47.512;19.054;2023-02-11T05:24:08;48.55;;;20.30;;
75890;SDS011;64571;47.512;19.054;2023-02-11T05:27:10;54.65;;;24.92;;
75890;SDS011;64571;47.512;19.054;2023-02-11T05:30:13;62.00;;;26.97;;
75890;SDS011;64571;47.512;19.054;2023-02-11T05:33:15;62.80;;;28.00;;
75890;SDS011;64571;47.512;19.054;2023-02-11T05:36:18;65.90;;;25.48;;
75890;SDS011;64571;47.512;19.054;2023-02-11T05:39:20;68.78;;;28.42;;
75890;SDS011;64571;47.512;19.054;2023-02-11T05:42:23;71.65;;;27.92;;
75890;SDS011;64571;47.512;19.054;2023-02-11T05:45:25;65.97;;;31.43;;
75890;SDS011;64571;47.512;19.054;2023-02-11T05:48:28;69.30;;;27.37;;
75890;SDS011;64571;47.512;19.054;2023-02-11T05:51:31;63.97;;;28.67;;
75890;SDS011;64571;47.512;19.054;2023-02-11T05:54:34;62.17;;;27.65;;
75890;SDS011;64571;47.512;19.054;2023-02-11T05:57:37;67.37;;;27.62;;
75890;SDS011;64571;47.512;19.054;2023-02-11T06:00:40;73.00;;;28.63;;
75890;SDS011;64571;47.512;19.054;2023-02-11T06:03:43;59.08;;;25.90;;
75890;SDS011;64571;47.512;19.054;2023-02-11T06:06:45;63.20;;;27.52;;
75890;SDS011;64571;47.512;19.054;2023-02-11T06:09:48;68.50;;;27.73;;
75890;SDS011;64571;47.512;19.054;2023-02-11T06:12:50;69.47;;;28.87;;
75890;SDS011;64571;47.512;19.054;2023-02-11T06:15:57;64.53;;;28.27;;
75890;SDS011;64571;47.512;19.054;2023-02-11T06:19:00;65.75;;;26.85;;
75890;SDS011;64571;47.512;19.054;2023-02-11T06:22:03;69.47;;;29.40;;
75890;SDS011;64571;47.512;19.054;2023-02-11T06:25:05;70.15;;;28.50;;
75890;SDS011;64571;47.512;19.054;2023-02-11T06:28:08;76.43;;;33.30;;
75890;SDS011;64571;47.512;19.054;2023-02-11T06:31:11;70.73;;;30.60;;
75890;SDS011;64571;47.512;19.054;2023-02-11T06:34:14;69.55;;;29.73;;
75890;SDS011;64571;47.512;19.054;2023-02-11T06:37:16;64.97;;;30.37;;
75890;SDS011;64571;47.512;19.054;2023-02-11T06:40:19;66.75;;;29.80;;
75890;SDS011;64571;47.512;19.054;2023-02-11T06:43:22;63.08;;;28.12;;
75890;SDS011;64571;47.512;19.054;2023-02-11T06:46:24;62.07;;;25.80;;
75890;SDS011;64571;47.512;19.054;2023-02-11T06:49:27;61.20;;;28.80;;
75890;SDS011;64571;47.512;19.054;2023-02-11T06:52:30;72.32;;;31.15;;
75890;SDS011;64571;47.512;19.054;2023-02-11T06:55:33;70.82;;;28.67;;
75890;SDS011;64571;47.512;19.054;2023-02-11T06:58:36;76.55;;;30.05;;
75890;SDS011;64571;47.512;19.054;2023-02-11T07:01:39;66.70;;;27.17;;
75890;SDS011;64571;47.512;19.054;2023-02-11T07:04:41;67.35;;;26.45;;
75890;SDS011;64571;47.512;19.054;2023-02-11T07:07:44;70.03;;;26.92;;
75890;SDS011;64571;47.512;19.054;2023-02-11T07:10:47;62.42;;;25.90;;
75890;SDS011;64571;47.512;19.054;2023-02-11T07:13:50;67.50;;;29.20;;
75890;SDS011;64571;47.512;19.054;2023-02-11T07:16:54;63.03;;;30.60;;
75890;SDS011;64571;47.512;19.054;2023-02-11T07:19:56;69.65;;;31.15;;
75890;SDS011;64571;47.512;19.054;2023-02-11T07:22:58;75.40;;;33.50;;
75890;SDS011;64571;47.512;19.054;2023-02-11T07:26:09;71.78;;;28.65;;
75890;SDS011;64571;47.512;19.054;2023-02-11T07:29:13;60.92;;;28.27;;
75890;SDS011;64571;47.512;19.054;2023-02-11T07:32:15;59.63;;;25.97;;
75890;SDS011;64571;47.512;19.054;2023-02-11T07:35:18;56.03;;;26.25;;
75890;SDS011;64571;47.512;19.054;2023-02-11T07:38:20;50.53;;;23.40;;
75890;SDS011;64571;47.512;19.054;2023-02-11T07:41:23;44.90;;;19.83;;
75890;SDS011;64571;47.512;19.054;2023-02-11T07:44:26;51.25;;;20.90;;
75890;SDS011;64571;47.512;19.054;2023-02-11T07:47:29;42.97;;;19.73;;
75890;SDS011;64571;47.512;19.054;2023-02-11T07:50:31;50.10;;;21.73;;
75890;SDS011;64571;47.512;19.054;2023-02-11T07:53:34;44.60;;;20.15;;
75890;SDS011;64571;47.512;19.054;2023-02-11T07:56:37;38.60;;;17.77;;
75890;SDS011;64571;47.512;19.054;2023-02-11T07:59:39;44.17;;;18.27;;
75890;SDS011;64571;47.512;19.054;2023-02-11T08:02:42;38.40;;;17.53;;
75890;SDS011;64571;47.512;19.054;2023-02-11T08:05:44;37.63;;;16.58;;
75890;SDS011;64571;47.512;19.054;2023-02-11T08:08:47;41.97;;;17.23;;
75890;SDS011;64571;47.512;19.054;2023-02-11T08:11:50;42.42;;;17.20;;
75890;SDS011;64571;47.512;19.054;2023-02-11T08:14:52;42.78;;;17.02;;
75890;SDS011;64571;47.512;19.054;2023-02-11T08:17:55;39.00;;;16.77;;
75890;SDS011;64571;47.512;19.054;2023-02-11T08:21:04;39.28;;;16.23;;
75890;SDS011;64571;47.512;19.054;2023-02-11T08:24:09;37.50;;;15.93;;
75890;SDS011;64571;47.512;19.054;2023-02-11T08:27:11;37.17;;;14.87;;
75890;SDS011;64571;47.512;19.054;2023-02-11T08:30:14;39.85;;;16.52;;
75890;SDS011;64571;47.512;19.054;2023-02-11T08:33:16;38.77;;;16.13;;
75890;SDS011;64571;47.512;19.054;2023-02-11T08:36:20;39.75;;;18.48;;
75890;SDS011;64571;47.512;19.054;2023-02-11T08:39:24;40.10;;;15.90;;
75890;SDS011;64571;47.512;19.054;2023-02-11T08:42:27;41.63;;;17.10;;
75890;SDS011;64571;47.512;19.054;2023-02-11T08:45:29;37.88;;;16.25;;
75890;SDS011;64571;47.512;19.054;2023-02-11T08:48:32;39.70;;;17.87;;
75890;SDS011;64571;47.512;19.054;2023-02-11T08:51:34;43.42;;;16.50;;
75890;SDS011;64571;47.512;19.054;2023-02-11T08:54:37;41.37;;;16.95;;
75890;SDS011;64571;47.512;19.054;2023-02-11T08:57:40;40.03;;;17.70;;
75890;SDS011;64571;47.512;19.054;2023-02-11T09:00:42;43.67;;;19.77;;
75890;SDS011;64571;47.512;19.054;2023-02-11T09:03:46;44.53;;;18.77;;
75890;SDS011;64571;47.512;19.054;2023-02-11T09:06:49;39.15;;;18.25;;
75890;SDS011;64571;47.512;19.054;2023-02-11T09:09:51;39.33;;;17.12;;
75890;SDS011;64571;47.512;19.054;2023-02-11T09:12:54;44.70;;;17.60;;
75890;SDS011;64571;47.512;19.054;2023-02-11T09:15:57;38.90;;;18.05;;
75890;SDS011;64571;47.512;19.054;2023-02-11T09:19:01;41.50;;;18.13;;
75890;SDS011;64571;47.512;19.054;2023-02-11T09:22:05;38.95;;;17.90;;
75890;SDS011;64571;47.512;19.054;2023-02-11T09:25:09;42.22;;;19.65;;
75890;SDS011;64571;47.512;19.054;2023-02-11T09:28:12;40.30;;;18.58;;
75890;SDS011;64571;47.512;19.054;2023-02-11T09:31:15;42.05;;;19.02;;
75890;SDS011;64571;47.512;19.054;2023-02-11T09:34:20;37.60;;;17.23;;
75890;SDS011;64571;47.512;19.054;2023-02-11T09:37:23;42.65;;;18.85;;
75890;SDS011;64571;47.512;19.054;2023-02-11T09:40:25;43.90;;;18.62;;
75890;SDS011;64571;47.512;19.054;2023-02-11T09:46:46;39.15;;;18.50;;
75890;SDS011;64571;47.512;19.054;2023-02-11T09:49:57;42.13;;;19.00;;
75890;SDS011;64571;47.512;19.054;2023-02-11T09:56:36;42.33;;;19.33;;
75890;SDS011;64571;47.512;19.054;2023-02-11T09:59:38;43.65;;;18.87;;
75890;SDS011;64571;47.512;19.054;2023-02-11T10:22:36;45.87;;;20.23;;
75890;SDS011;64571;47.512;19.054;2023-02-11T10:25:54;49.90;;;21.02;;
75890;SDS011;64571;47.512;19.054;2023-02-11T10:28:59;44.25;;;19.75;;
75890;SDS011;64571;47.512;19.054;2023-02-11T10:32:10;55.95;;;23.45;;
75890;SDS011;64571;47.512;19.054;2023-02-11T10:35:30;41.35;;;19.87;;
75890;SDS011;64571;47.512;19.054;2023-02-11T10:38:33;42.03;;;21.03;;
75890;SDS011;64571;47.512;19.054;2023-02-11T10:41:39;43.67;;;19.83;;
75890;SDS011;64571;47.512;19.054;2023-02-11T10:45:04;42.80;;;19.65;;
75890;SDS011;64571;47.512;19.054;2023-02-11T10:51:44;45.35;;;20.92;;
75890;SDS011;64571;47.512;19.054;2023-02-11T10:58:22;45.95;;;21.20;;
75890;SDS011;64571;47.512;19.054;2023-02-11T11:04:57;42.72;;;20.80;;
75890;SDS011;64571;47.512;19.054;2023-02-11T11:08:01;44.03;;;21.10;;
75890;SDS011;64571;47.512;19.054;2023-02-11T11:11:11;40.50;;;18.50;;
75890;SDS011;64571;47.512;19.054;2023-02-11T11:14:19;39.83;;;19.35;;
75890;SDS011;64571;47.512;19.054;2023-02-11T11:17:23;44.22;;;18.85;;
75890;SDS011;64571;47.512;19.054;2023-02-11T11:20:29;40.40;;;20.40;;
75890;SDS011;64571;47.512;19.054;2023-02-11T11:23:37;44.10;;;19.77;;
75890;SDS011;64571;47.512;19.054;2023-02-11T11:26:41;42.80;;;18.43;;
75890;SDS011;64571;47.512;19.054;2023-02-11T11:29:47;43.63;;;20.17;;
75890;SDS011;64571;47.512;19.054;2023-02-11T11:32:52;39.70;;;18.75;;
75890;SDS011;64571;47.512;19.054;2023-02-11T11:35:57;41.75;;;19.25;;
75890;SDS011;64571;47.512;19.054;2023-02-11T11:39:01;40.47;;;18.98;;
75890;SDS011;64571;47.512;19.054;2023-02-11T11:42:32;41.77;;;19.17;;
75890;SDS011;64571;47.512;19.054;2023-02-11T11:45:36;37.67;;;17.73;;
75890;SDS011;64571;47.512;19.054;2023-02-11T11:48:41;39.88;;;18.40;;
75890;SDS011;64571;47.512;19.054;2023-02-11T11:55:18;34.30;;;16.30;;
75890;SDS011;64571;47.512;19.054;2023-02-11T11:58:23;29.27;;;12.07;;
75890;SDS011;64571;47.512;19.054;2023-02-11T12:04:58;36.50;;;16.35;;
75890;SDS011;64571;47.512;19.054;2023-02-11T12:08:15;35.05;;;14.45;;
75890;SDS011;64571;47.512;19.054;2023-02-11T12:41:44;28.87;;;11.50;;
75890;SDS011;64571;47.512;19.054;2023-02-11T12:48:49;21.53;;;9.77;;
75890;SDS011;64571;47.512;19.054;2023-02-11T12:58:29;25.17;;;10.15;;
75890;SDS011;64571;47.512;19.054;2023-02-11T13:01:46;24.27;;;9.98;;
75890;SDS011;64571;47.512;19.054;2023-02-11T13:04:54;30.60;;;10.80;;
75890;SDS011;64571;47.512;19.054;2023-02-11T13:08:10;23.15;;;10.77;;
75890;SDS011;64571;47.512;19.054;2023-02-11T13:11:37;18.55;;;7.57;;
75890;SDS011;64571;47.512;19.054;2023-02-11T13:14:41;23.45;;;9.43;;
75890;SDS011;64571;47.512;19.054;2023-02-11T13:27:56;26.98;;;11.12;;
75890;SDS011;64571;47.512;19.054;2023-02-11T13:31:08;23.45;;;10.25;;
75890;SDS011;64571;47.512;19.054;2023-02-11T13:34:53;23.65;;;10.38;;
75890;SDS011;64571;47.512;19.054;2023-02-11T13:37:51;23.53;;;10.13;;
75890;SDS011;64571;47.512;19.054;2023-02-11T13:47:27;25.73;;;9.90;;
75890;SDS011;64571;47.512;19.054;2023-02-11T13:50:38;23.27;;;9.43;;
75890;SDS011;64571;47.512;19.054;2023-02-11T13:53:55;27.67;;;10.63;;
75890;SDS011;64571;47.512;19.054;2023-02-11T13:57:20;23.70;;;10.25;;
75890;SDS011;64571;47.512;19.054;2023-02-11T14:03:37;26.85;;;10.23;;
75890;SDS011;64571;47.512;19.054;2023-02-11T14:11:06;25.37;;;11.20;;
75890;SDS011;64571;47.512;19.054;2023-02-11T14:14:14;28.38;;;11.12;;
75890;SDS011;64571;47.512;19.054;2023-02-11T14:17:27;25.70;;;10.88;;
75890;SDS011;64571;47.512;19.054;2023-02-11T14:20:36;27.17;;;11.60;;
75890;SDS011;64571;47.512;19.054;2023-02-11T14:23:43;27.70;;;11.73;;
75890;SDS011;64571;47.512;19.054;2023-02-11T14:26:51;24.87;;;11.80;;
75890;SDS011;64571;47.512;19.054;2023-02-11T14:43:25;27.13;;;11.17;;
75890;SDS011;64571;47.512;19.054;2023-02-11T14:46:32;26.92;;;10.50;;
75890;SDS011;64571;47.512;19.054;2023-02-11T14:49:37;22.35;;;11.68;;
75890;SDS011;64571;47.512;19.054;2023-02-11T14:52:41;27.23;;;10.95;;
75890;SDS011;64571;47.512;19.054;2023-02-11T14:55:49;26.55;;;10.98;;
75890;SDS011;64571;47.512;19.054;2023-02-11T14:58:56;25.50;;;10.90;;
75890;SDS011;64571;47.512;19.054;2023-02-11T15:01:59;28.40;;;10.85;;
75890;SDS011;64571;47.512;19.054;2023-02-11T15:05:21;27.95;;;12.23;;
75890;SDS011;64571;47.512;19.054;2023-02-11T15:08:27;27.80;;;12.18;;
75890;SDS011;64571;47.512;19.054;2023-02-11T15:11:37;29.85;;;13.00;;
75890;SDS011;64571;47.512;19.054;2023-02-11T15:14:43;26.90;;;11.67;;
75890;SDS011;64571;47.512;19.054;2023-02-11T15:17:49;27.60;;;11.57;;
75890;SDS011;64571;47.512;19.054;2023-02-11T15:20:52;32.47;;;12.07;;
75890;SDS011;64571;47.512;19.054;2023-02-11T15:24:03;27.10;;;12.10;;
75890;SDS011;64571;47.512;19.054;2023-02-11T15:30:22;23.17;;;8.97;;
75890;SDS011;64571;47.512;19.054;2023-02-11T15:33:26;28.50;;;11.15;;
75890;SDS011;64571;47.512;19.054;2023-02-11T15:36:31;28.87;;;11.80;;
75890;SDS011;64571;47.512;19.054;2023-02-11T15:39:38;30.52;;;12.52;;
75890;SDS011;64571;47.512;19.054;2023-02-11T15:42:56;27.45;;;11.57;;
75890;SDS011;64571;47.512;19.054;2023-02-11T15:46:00;29.13;;;11.73;;
75890;SDS011;64571;47.512;19.054;2023-02-11T15:49:03;33.08;;;12.15;;
75890;SDS011;64571;47.512;19.054;2023-02-11T15:52:06;27.55;;;12.45;;
75890;SDS011;64571;47.512;19.054;2023-02-11T15:55:11;31.00;;;12.73;;
75890;SDS011;64571;47.512;19.054;2023-02-11T15:58:15;34.13;;;12.95;;
75890;SDS011;64571;47.512;19.054;2023-02-11T16:01:18;29.90;;;12.93;;
75890;SDS011;64571;47.512;19.054;2023-02-11T16:04:21;29.75;;;12.70;;
75890;SDS011;64571;47.512;19.054;2023-02-11T16:07:39;27.67;;;12.10;;
75890;SDS011;64571;47.512;19.054;2023-02-11T16:10:56;29.95;;;11.73;;
75890;SDS011;64571;47.512;19.054;2023-02-11T16:14:00;28.73;;;12.68;;
75890;SDS011;64571;47.512;19.054;2023-02-11T16:20:16;35.25;;;13.73;;
75890;SDS011;64571;47.512;19.054;2023-02-11T16:23:28;27.50;;;12.25;;
75890;SDS011;64571;47.512;19.054;2023-02-11T16:26:37;32.47;;;13.82;;
75890;SDS011;64571;47.512;19.054;2023-02-11T16:29:44;29.12;;;12.27;;
75890;SDS011;64571;47.512;19.054;2023-02-11T16:32:51;27.30;;;11.83;;
75890;SDS011;64571;47.512;19.054;2023-02-11T16:35:55;26.70;;;11.68;;
75890;SDS011;64571;47.512;19.054;2023-02-11T16:38:58;28.90;;;12.20;;
75890;SDS011;64571;47.512;19.054;2023-02-11T16:42:01;33.53;;;13.52;;
75890;SDS011;64571;47.512;19.054;2023-02-11T16:45:08;31.87;;;13.95;;
75890;SDS011;64571;47.512;19.054;2023-02-11T16:48:12;32.90;;;13.57;;
75890;SDS011;64571;47.512;19.054;2023-02-11T16:51:18;27.52;;;13.07;;
75890;SDS011;64571;47.512;19.054;2023-02-11T16:54:22;30.45;;;13.32;;
75890;SDS011;64571;47.512;19.054;2023-02-11T16:57:25;30.12;;;13.62;;
75890;SDS011;64571;47.512;19.054;2023-02-11T17:00:31;30.90;;;14.02;;
75890;SDS011;64571;47.512;19.054;2023-02-11T17:03:34;29.33;;;12.40;;
75890;SDS011;64571;47.512;19.054;2023-02-11T17:06:41;32.67;;;14.13;;
75890;SDS011;64571;47.512;19.054;2023-02-11T17:09:44;32.45;;;13.43;;
75890;SDS011;64571;47.512;19.054;2023-02-11T17:12:47;32.47;;;14.13;;
75890;SDS011;64571;47.512;19.054;2023-02-11T17:15:49;40.05;;;13.13;;
75890;SDS011;64571;47.512;19.054;2023-02-11T17:18:53;28.57;;;12.70;;
75890;SDS011;64571;47.512;19.054;2023-02-11T17:21:55;30.70;;;13.43;;
75890;SDS011;64571;47.512;19.054;2023-02-11T17:24:58;27.92;;;12.80;;
75890;SDS011;64571;47.512;19.054;2023-02-11T17:28:01;29.58;;;12.73;;
75890;SDS011;64571;47.512;19.054;2023-02-11T17:31:07;33.20;;;13.40;;
75890;SDS011;64571;47.512;19.054;2023-02-11T17:34:10;36.93;;;14.93;;
75890;SDS011;64571;47.512;19.054;2023-02-11T17:37:13;38.47;;;13.07;;
75890;SDS011;64571;47.512;19.054;2023-02-11T17:40:16;30.52;;;13.13;;
75890;SDS011;64571;47.512;19.054;2023-02-11T17:43:18;32.35;;;14.27;;
75890;SDS011;64571;47.512;19.054;2023-02-11T17:46:21;32.00;;;13.15;;
75890;SDS011;64571;47.512;19.054;2023-02-11T17:49:23;33.10;;;14.83;;
75890;SDS011;64571;47.512;19.054;2023-02-11T17:52:26;33.72;;;13.48;;
75890;SDS011;64571;47.512;19.054;2023-02-11T17:55:31;31.35;;;13.80;;
75890;SDS011;64571;47.512;19.054;2023-02-11T17:58:35;30.98;;;14.30;;
75890;SDS011;64571;47.512;19.054;2023-02-11T18:01:38;31.80;;;14.85;;
75890;SDS011;64571;47.512;19.054;2023-02-11T18:04:42;27.87;;;13.30;;
75890;SDS011;64571;47.512;19.054;2023-02-11T18:07:44;34.42;;;14.52;;
75890;SDS011;64571;47.512;19.054;2023-02-11T18:10:49;31.60;;;13.65;;
75890;SDS011;64571;47.512;19.054;2023-02-11T18:13:51;30.67;;;13.18;;
75890;SDS011;64571;47.512;19.054;2023-02-11T18:16:55;31.37;;;12.20;;
75890;SDS011;64571;47.512;19.054;2023-02-11T18:19:58;28.73;;;12.43;;
75890;SDS011;64571;47.512;19.054;2023-02-11T18:23:01;30.67;;;13.60;;
75890;SDS011;64571;47.512;19.054;2023-02-11T18:26:07;34.80;;;14.35;;
75890;SDS011;64571;47.512;19.054;2023-02-11T18:29:11;33.50;;;15.85;;
75890;SDS011;64571;47.512;19.054;2023-02-11T18:32:13;32.88;;;14.68;;
75890;SDS011;64571;47.512;19.054;2023-02-11T18:35:16;31.77;;;14.47;;
75890;SDS011;64571;47.512;19.054;2023-02-11T18:38:18;36.33;;;15.65;;
75890;SDS011;64571;47.512;19.054;2023-02-11T18:41:21;33.10;;;14.02;;
75890;SDS011;64571;47.512;19.054;2023-02-11T18:44:25;25.75;;;12.20;;
75890;SDS011;64571;47.512;19.054;2023-02-11T18:47:28;29.65;;;13.10;;
75890;SDS011;64571;47.512;19.054;2023-02-11T18:50:32;32.07;;;12.97;;
75890;SDS011;64571;47.512;19.054;2023-02-11T18:53:35;32.58;;;14.35;;
75890;SDS011;64571;47.512;19.054;2023-02-11T18:56:38;34.97;;;13.88;;
75890;SDS011;64571;47.512;19.054;2023-02-11T18:59:41;32.53;;;14.02;;
75890;SDS011;64571;47.512;19.054;2023-02-11T19:02:44;29.87;;;12.48;;
75890;SDS011;64571;47.512;19.054;2023-02-11T19:05:47;28.60;;;13.33;;
75890;SDS011;64571;47.512;19.054;2023-02-11T19:08:51;32.20;;;14.63;;
75890;SDS011;64571;47.512;19.054;2023-02-11T19:11:55;32.85;;;14.35;;
75890;SDS011;64571;47.512;19.054;2023-02-11T19:14:58;27.35;;;12.27;;
75890;SDS011;64571;47.512;19.054;2023-02-11T19:18:02;27.65;;;12.65;;
75890;SDS011;64571;47.512;19.054;2023-02-11T19:21:08;24.47;;;11.17;;
75890;SDS011;64571;47.512;19.054;2023-02-11T19:24:13;25.77;;;10.70;;
75890;SDS011;64571;47.512;19.054;2023-02-11T19:27:18;37.40;;;13.55;;
75890;SDS011;64571;47.512;19.054;2023-02-11T19:30:20;24.83;;;11.90;;
75890;SDS011;64571;47.512;19.054;2023-02-11T19:33:23;29.05;;;12.55;;
75890;SDS011;64571;47.512;19.054;2023-02-11T19:36:26;29.30;;;11.53;;
75890;SDS011;64571;47.512;19.054;2023-02-11T19:39:28;30.00;;;13.70;;
75890;SDS011;64571;47.512;19.054;2023-02-11T19:42:32;29.27;;;12.10;;
75890;SDS011;64571;47.512;19.054;2023-02-11T19:45:36;31.92;;;13.15;;
75890;SDS011;64571;47.512;19.054;2023-02-11T19:48:39;30.70;;;12.70;;
75890;SDS011;64571;47.512;19.054;2023-02-11T19:51:41;26.40;;;11.80;;
75890;SDS011;64571;47.512;19.054;2023-02-11T19:54:44;28.02;;;12.10;;
75890;SDS011;64571;47.512;19.054;2023-02-11T19:57:50;28.33;;;13.95;;
75890;SDS011;64571;47.512;19.054;2023-02-11T20:00:52;28.35;;;12.68;;
75890;SDS011;64571;47.512;19.054;2023-02-11T20:03:55;29.17;;;13.48;;
75890;SDS011;64571;47.512;19.054;2023-02-11T20:06:58;29.50;;;13.63;;
75890;SDS011;64571;47.512;19.054;2023-02-11T20:10:01;29.40;;;13.50;;
75890;SDS011;64571;47.512;19.054;2023-02-11T20:13:04;30.70;;;13.00;;
75890;SDS011;64571;47.512;19.054;2023-02-11T20:16:07;28.77;;;13.05;;
75890;SDS011;64571;47.512;19.054;2023-02-11T20:19:14;30.25;;;14.05;;
75890;SDS011;64571;47.512;19.054;2023-02-11T20:22:19;25.90;;;11.57;;
75890;SDS011;64571;47.512;19.054;2023-02-11T20:25:22;21.85;;;10.80;;
75890;SDS011;64571;47.512;19.054;2023-02-11T20:28:24;28.80;;;11.65;;
75890;SDS011;64571;47.512;19.054;2023-02-11T20:31:30;22.75;;;12.37;;
75890;SDS011;64571;47.512;19.054;2023-02-11T20:34:33;27.85;;;12.50;;
75890;SDS011;64571;47.512;19.054;2023-02-11T20:37:36;23.80;;;12.10;;